Time;durP1;ratioP1;P1;durP2;ratioP2;P2;SDS_P1;SDS_P2;PMS_P1;PMS_P2;Temp;Humidity;BMP_temperature;BMP_pressure;BME280_temperature;BME280_humidity;BME280_pressure;Samples;Min_cycle;Max_cycle;Signal;HPM_P1;HPM_P2
2023/11/20 00:01:24;;;;;;;6.50;5.90;;;;;;;6.04;100.00;99109.69;5093920;28;20204;-78
2023/11/20 00:03:52;;;;;;;7.50;6.80;;;;;;;6.08;100.00;99116.25;5102292;28;20663;-76
2023/11/20 00:06:22;;;;;;;6.70;6.00;;;;;;;6.10;100.00;99109.72;5108735;28;20672;-77
2023/11/20 00:08:50;;;;;;;6.43;5.70;;;;;;;6.14;100.00;99110.94;5103089;28;20219;-77
2023/11/20 00:11:18;;;;;;;5.67;2.70;;;;;;;6.58;100.00;99130.78;5098065;28;20204;-79
2023/11/20 00:13:53;;;;;;;4.13;2.83;;;;;;;6.64;100.00;99136.09;5097375;28;20186;-78
2023/11/20 00:16:27;;;;;;;3.00;2.67;;;;;;;6.73;100.00;99138.53;5097369;28;20195;-78
2023/11/20 00:18:56;;;;;;;2.53;2.33;;;;;;;6.86;100.00;99150.00;5102850;28;20198;-77
2023/11/20 00:21:26;;;;;;;3.43;2.63;;;;;;;7.02;100.00;99149.56;5102144;28;20350;-76
2023/11/20 00:23:57;;;;;;;3.23;2.67;;;;;;;7.03;100.00;99166.38;5099604;28;20200;-77
2023/11/20 00:26:26;;;;;;;2.33;1.80;;;;;;;7.19;100.00;99165.09;5104531;28;20198;-77
2023/11/20 00:29:04;;;;;;;3.83;1.83;;;;;;;7.21;100.00;99161.19;5082125;28;20222;-77
2023/11/20 00:31:40;;;;;;;2.93;1.67;;;;;;;7.26;100.00;99149.91;5079175;28;20222;-78
2023/11/20 00:34:13;;;;;;;2.93;1.67;;;;;;;7.33;100.00;99145.38;5091424;28;20294;-79
2023/11/20 00:36:43;;;;;;;2.80;1.50;;;;;;;7.38;100.00;99156.22;5089603;28;20203;-77
2023/11/20 00:39:12;;;;;;;2.43;1.30;;;;;;;7.44;100.00;99150.06;5095450;28;20761;-78
2023/11/20 00:41:40;;;;;;;2.90;1.10;;;;;;;7.47;100.00;99145.13;5094746;28;20192;-77
2023/11/20 00:44:13;;;;;;;1.57;1.10;;;;;;;7.60;100.00;99149.59;5094982;28;20202;-79
2023/11/20 00:46:42;;;;;;;0.90;0.90;;;;;;;7.64;100.00;99169.47;5088341;28;20224;-78
2023/11/20 00:49:10;;;;;;;4.63;1.00;;;;;;;7.75;100.00;99182.13;5091538;28;20220;-78
2023/11/20 00:51:39;;;;;;;1.00;0.90;;;;;;;7.82;100.00;99190.09;5085266;28;20207;-77
2023/11/20 00:54:09;;;;;;;1.40;0.93;;;;;;;7.85;100.00;99195.00;5094472;28;20196;-79
2023/11/20 00:56:41;;;;;;;1.43;0.90;;;;;;;7.88;100.00;99173.25;5084160;28;20200;-78
2023/11/20 00:59:10;;;;;;;1.50;0.80;;;;;;;7.95;100.00;99174.03;5095411;28;20195;-78
2023/11/20 01:01:38;;;;;;;2.43;0.80;;;;;;;7.96;100.00;99183.66;5108616;28;20210;-76
2023/11/20 01:04:07;;;;;;;0.77;0.67;;;;;;;7.94;100.00;99178.53;5094531;28;20227;-79
2023/11/20 01:06:40;;;;;;;1.50;0.90;;;;;;;8.01;100.00;99167.84;5101908;28;20225;-80
2023/11/20 01:09:08;;;;;;;1.87;0.70;;;;;;;8.12;100.00;99164.47;5097152;28;20220;-77
2023/11/20 01:11:36;;;;;;;0.97;0.70;;;;;;;8.14;100.00;99161.59;5103948;28;20192;-79
2023/11/20 01:14:09;;;;;;;0.90;0.70;;;;;;;8.18;100.00;99152.94;5089932;28;20188;-77
2023/11/20 01:16:47;;;;;;;1.40;0.70;;;;;;;8.18;100.00;99142.28;5088386;28;20678;-77
2023/11/20 01:19:16;;;;;;;1.67;0.90;;;;;;;8.18;100.00;99128.13;5083923;28;20287;-77
2023/11/20 01:21:45;;;;;;;2.97;0.70;;;;;;;8.19;100.00;99109.22;5086275;28;20207;-77
2023/11/20 01:24:13;;;;;;;1.10;0.70;;;;;;;8.20;100.00;99100.19;5092256;28;20203;-76
2023/11/20 01:26:45;;;;;;;1.93;0.70;;;;;;;8.21;100.00;99120.47;5098362;28;20203;-77
2023/11/20 01:29:12;;;;;;;2.23;0.67;;;;;;;8.15;100.00;99118.69;5112106;28;20211;-78
2023/11/20 01:31:42;;;;;;;0.70;0.70;;;;;;;8.17;100.00;99134.47;5097663;28;20200;-78
2023/11/20 01:34:12;;;;;;;1.60;0.70;;;;;;;8.15;100.00;99136.56;5091269;28;20655;-79
2023/11/20 01:36:41;;;;;;;0.77;0.70;;;;;;;8.14;100.00;99137.59;5091402;28;20200;-78
2023/11/20 01:39:09;;;;;;;1.60;0.80;;;;;;;8.25;100.00;99137.72;5094793;28;20653;-79
2023/11/20 01:41:37;;;;;;;0.70;0.50;;;;;;;8.26;100.00;99120.66;5091858;28;20216;-80
2023/11/20 01:44:06;;;;;;;1.27;0.80;;;;;;;8.23;100.00;99121.09;5102534;28;20192;-77
2023/11/20 01:46:36;;;;;;;2.07;0.50;;;;;;;8.24;100.00;99112.06;5094962;28;20227;-78
2023/11/20 01:49:10;;;;;;;1.43;0.70;;;;;;;8.24;100.00;99087.22;5091015;28;20302;-78
2023/11/20 01:51:38;;;;;;;2.23;0.80;;;;;;;8.23;100.00;99086.41;5100021;28;20184;-78
2023/11/20 01:54:09;;;;;;;1.27;0.60;;;;;;;8.29;100.00;99093.59;5094211;28;20188;-78
2023/11/20 01:56:43;;;;;;;0.97;0.67;;;;;;;8.29;100.00;99087.41;5102076;28;20212;-79
2023/11/20 01:59:12;;;;;;;2.77;1.33;;;;;;;8.24;100.00;99066.69;5096405;28;20196;-78
2023/11/20 02:01:41;;;;;;;4.10;1.60;;;;;;;8.14;100.00;99069.03;5082866;28;20188;-79
2023/11/20 02:04:13;;;;;;;1.90;1.07;;;;;;;8.10;100.00;99059.00;5070721;28;20200;-79
2023/11/20 02:06:42;;;;;;;1.10;0.80;;;;;;;8.14;100.00;99058.34;5091549;28;20218;-78
2023/11/20 02:09:10;;;;;;;1.47;0.83;;;;;;;8.05;100.00;99058.84;5092819;28;20228;-78
2023/11/20 02:11:38;;;;;;;2.53;1.60;;;;;;;8.09;100.00;99063.53;5092550;28;21491;-78
2023/11/20 02:14:06;;;;;;;4.77;1.87;;;;;;;8.09;100.00;99070.72;5070783;28;20731;-76
2023/11/20 02:16:36;;;;;;;1.93;1.50;;;;;;;8.08;100.00;99069.88;5088939;28;20211;-79
2023/11/20 02:19:16;;;;;;;4.70;1.87;;;;;;;8.09;100.00;99058.19;5095211;28;20191;-77
2023/11/20 02:21:46;;;;;;;1.53;0.93;;;;;;;8.12;100.00;99063.06;5084865;28;20220;-75
2023/11/20 02:24:15;;;;;;;1.80;1.00;;;;;;;8.15;100.00;99056.50;5097800;28;20198;-79
2023/11/20 02:27:28;;;;;;;2.20;0.80;;;;;;;8.22;100.00;99060.75;5101701;28;20188;-78
2023/11/20 02:29:56;;;;;;;0.97;0.60;;;;;;;8.29;100.00;99066.03;5066421;28;20267;-77
2023/11/20 02:32:28;;;;;;;2.40;0.70;;;;;;;8.30;100.00;99046.34;5109218;28;20195;-78
2023/11/20 02:34:55;;;;;;;2.13;0.60;;;;;;;8.27;100.00;99044.06;5104522;28;20196;-76
2023/11/20 02:37:23;;;;;;;1.37;0.60;;;;;;;8.20;100.00;99041.47;5084416;28;20204;-79
2023/11/20 02:39:51;;;;;;;1.10;0.60;;;;;;;8.23;100.00;99046.38;5089703;28;20761;-83
2023/11/20 02:42:22;;;;;;;1.20;0.50;;;;;;;8.11;100.00;99029.44;5092241;28;20189;-80
2023/11/20 02:44:51;;;;;;;1.40;0.60;;;;;;;8.13;100.00;99035.38;5092763;28;20199;-78
2023/11/20 02:47:22;;;;;;;1.53;0.70;;;;;;;8.22;100.00;99051.91;5105880;28;20219;-77
2023/11/20 02:49:51;;;;;;;3.60;0.80;;;;;;;8.27;100.00;99046.75;5087643;28;20230;-78
2023/11/20 02:52:30;;;;;;;1.50;0.70;;;;;;;8.14;100.00;99044.19;5093825;28;20216;-77
2023/11/20 02:55:02;;;;;;;2.47;0.90;;;;;;;8.24;100.00;99036.53;5093841;28;20246;-77
2023/11/20 02:57:30;;;;;;;3.13;0.80;;;;;;;8.18;100.00;99040.06;5103192;28;20242;-78
2023/11/20 02:59:58;;;;;;;1.77;0.70;;;;;;;8.09;100.00;99044.03;5083085;28;20231;-78
2023/11/20 03:02:25;;;;;;;1.63;0.80;;;;;;;8.03;100.00;99028.88;5104137;28;20192;-77
2023/11/20 03:04:57;;;;;;;3.17;0.70;;;;;;;7.97;100.00;99025.25;5107292;28;20211;-79
2023/11/20 03:07:26;;;;;;;3.20;0.90;;;;;;;7.89;100.00;99039.66;5096860;28;20232;-78
2023/11/20 03:09:55;;;;;;;2.40;0.80;;;;;;;7.80;100.00;99016.97;5099496;28;20224;-79
2023/11/20 03:12:23;;;;;;;3.03;0.90;;;;;;;7.74;100.00;99022.34;5096291;28;20227;-79
2023/11/20 03:14:59;;;;;;;1.97;0.80;;;;;;;7.60;100.00;99020.81;5093635;28;20237;-77
2023/11/20 03:17:33;;;;;;;1.87;0.73;;;;;;;7.49;100.00;99015.13;5105490;28;20240;-79
2023/11/20 03:20:07;;;;;;;3.00;1.03;;;;;;;7.50;100.00;99023.94;5100367;28;20195;-79
2023/11/20 03:22:37;;;;;;;3.53;1.10;;;;;;;7.46;100.00;99006.75;5096643;28;20195;-79
2023/11/20 03:25:08;;;;;;;3.10;0.97;;;;;;;7.40;100.00;99012.94;5097627;28;20200;-76
2023/11/20 03:27:40;;;;;;;2.83;1.30;;;;;;;7.59;100.00;99005.84;5100555;28;20192;-78
2023/11/20 03:30:09;;;;;;;4.07;1.00;;;;;;;7.49;100.00;99019.63;5098590;28;20751;-77
2023/11/20 03:32:38;;;;;;;3.17;1.00;;;;;;;7.49;100.00;99022.31;5111988;28;20201;-79
2023/11/20 03:35:06;;;;;;;3.30;0.93;;;;;;;7.53;100.00;99019.00;5103582;28;20198;-79
2023/11/20 03:37:34;;;;;;;3.57;1.10;;;;;;;7.56;100.00;99023.06;5105181;28;20202;-78
2023/11/20 03:40:03;;;;;;;3.10;0.90;;;;;;;7.56;100.00;99009.72;5086999;28;20200;-78
2023/11/20 03:42:36;;;;;;;2.97;1.00;;;;;;;7.52;100.00;99021.84;5097407;28;20249;-79
2023/11/20 03:45:05;;;;;;;4.47;1.00;;;;;;;7.49;100.00;99011.63;5096866;28;20192;-79
2023/11/20 03:47:37;;;;;;;3.00;0.90;;;;;;;7.47;100.00;99016.34;5103272;28;20215;-78
2023/11/20 03:50:08;;;;;;;6.00;1.23;;;;;;;7.52;100.00;99006.69;5102941;28;20296;-79
2023/11/20 03:52:36;;;;;;;2.87;0.90;;;;;;;7.56;100.00;99004.41;5088930;28;20302;-80
2023/11/20 03:55:09;;;;;;;2.17;0.80;;;;;;;7.61;100.00;98993.91;5097428;28;20199;-81
2023/11/20 03:57:38;;;;;;;2.87;1.00;;;;;;;7.65;100.00;98994.31;5085139;28;20246;-78
2023/11/20 04:00:07;;;;;;;4.37;1.10;;;;;;;7.81;100.00;98986.59;5091901;28;20200;-79
2023/11/20 04:02:34;;;;;;;4.70;1.63;;;;;;;7.89;100.00;98999.66;5082352;28;20763;-78
2023/11/20 04:05:02;;;;;;;3.67;1.20;;;;;;;8.10;100.00;98993.13;5096573;28;20231;-77
2023/11/20 04:07:31;;;;;;;5.50;1.33;;;;;;;8.07;100.00;98980.22;5088319;28;20659;-78
2023/11/20 04:09:58;;;;;;;4.57;1.23;;;;;;;8.13;100.00;98982.00;5090664;28;20265;-77
2023/11/20 04:12:28;;;;;;;2.83;0.93;;;;;;;8.16;100.00;98978.09;5097745;28;20203;-81
2023/11/20 04:14:56;;;;;;;4.73;1.17;;;;;;;8.24;100.00;98989.31;5099471;28;20203;-78
2023/11/20 04:17:23;;;;;;;3.13;1.00;;;;;;;8.32;100.00;98978.38;5082920;28;20203;-79
2023/11/20 04:19:51;;;;;;;4.13;1.17;;;;;;;8.36;100.00;98976.88;5088411;28;20192;-78
2023/11/20 04:22:21;;;;;;;3.43;1.13;;;;;;;8.40;100.00;98980.75;5092156;28;20309;-79
2023/11/20 04:24:49;;;;;;;5.57;1.20;;;;;;;8.35;100.00;98971.78;5092083;28;20199;-77
2023/11/20 04:27:18;;;;;;;6.17;1.27;;;;;;;8.30;100.00;98979.63;5097823;28;20226;-77
2023/11/20 04:29:50;;;;;;;6.43;1.50;;;;;;;8.29;100.00;98978.81;5098891;28;20223;-80
2023/11/20 04:32:25;;;;;;;4.53;1.00;;;;;;;8.34;100.00;98980.81;5101016;28;20190;-79
2023/11/20 04:34:53;;;;;;;5.07;1.60;;;;;;;8.29;100.00;98985.97;5074101;28;20234;-78
2023/11/20 04:37:24;;;;;;;3.23;0.90;;;;;;;8.27;100.00;98980.03;5086937;28;20219;-78
2023/11/20 04:39:53;;;;;;;3.00;0.90;;;;;;;8.36;100.00;98976.06;5104537;28;20242;-77
2023/11/20 04:42:26;;;;;;;4.53;1.10;;;;;;;8.25;100.00;98974.94;5096399;28;20659;-77
2023/11/20 04:44:55;;;;;;;5.30;1.20;;;;;;;8.22;100.00;98970.00;5103182;28;20261;-77
2023/11/20 04:47:26;;;;;;;5.40;1.20;;;;;;;8.29;100.00;98976.16;5102992;28;20226;-81
2023/11/20 04:49:54;;;;;;;3.53;1.30;;;;;;;8.34;100.00;98964.81;5105964;28;20216;-80
2023/11/20 04:52:22;;;;;;;5.73;1.10;;;;;;;8.45;100.00;98965.91;5100156;28;20191;-79
2023/11/20 04:54:49;;;;;;;6.17;1.30;;;;;;;8.49;100.00;98964.44;5103145;28;20292;-79
2023/11/20 04:57:20;;;;;;;3.43;0.90;;;;;;;8.48;100.00;98960.16;5104638;28;20215;-79
2023/11/20 04:59:57;;;;;;;4.60;1.00;;;;;;;8.53;100.00;98960.28;5100929;28;20721;-77
2023/11/20 05:02:25;;;;;;;4.10;1.10;;;;;;;8.49;100.00;98951.91;5103094;28;20218;-78
2023/11/20 05:04:54;;;;;;;4.30;1.10;;;;;;;8.63;100.00;98949.91;5108447;28;20196;-78
2023/11/20 05:07:21;;;;;;;3.40;1.00;;;;;;;8.67;100.00;98941.25;5081230;28;20624;-78
2023/11/20 05:09:49;;;;;;;3.57;1.00;;;;;;;8.64;100.00;98941.66;5104624;28;20259;-80
2023/11/20 05:12:20;;;;;;;3.63;0.90;;;;;;;8.64;100.00;98946.19;5108903;28;20245;-80
2023/11/20 05:14:47;;;;;;;4.77;1.10;;;;;;;8.61;100.00;98946.66;5078676;28;20201;-79
2023/11/20 05:17:20;;;;;;;5.37;1.50;;;;;;;8.59;100.00;98938.84;5089595;28;20188;-79
2023/11/20 05:19:48;;;;;;;4.43;1.00;;;;;;;8.63;100.00;98941.91;5088278;28;20797;-79
2023/11/20 05:22:17;;;;;;;3.73;1.10;;;;;;;8.58;100.00;98929.22;5094657;28;20249;-79
2023/11/20 05:24:48;;;;;;;2.63;1.03;;;;;;;8.54;100.00;98943.25;5093185;28;20593;-79
2023/11/20 05:27:19;;;;;;;3.17;1.27;;;;;;;8.67;100.00;98943.91;5087413;28;20199;-79
2023/11/20 05:29:47;;;;;;;3.53;0.93;;;;;;;8.67;100.00;98932.41;5080551;28;20213;-79
2023/11/20 05:32:16;;;;;;;4.33;1.20;;;;;;;8.73;100.00;98944.84;5088826;28;20772;-77
2023/11/20 05:34:45;;;;;;;3.50;0.80;;;;;;;8.74;100.00;98941.97;5112465;28;20664;-78
2023/11/20 05:37:13;;;;;;;3.33;0.80;;;;;;;8.77;100.00;98948.72;5103012;28;20208;-78
2023/11/20 05:39:41;;;;;;;2.87;0.90;;;;;;;9.00;100.00;98945.34;5099019;28;20193;-82
2023/11/20 05:42:12;;;;;;;4.33;1.03;;;;;;;9.01;100.00;98936.25;5096945;28;20222;-78
2023/11/20 05:44:39;;;;;;;1.87;0.90;;;;;;;8.93;100.00;98937.41;5111191;27;20286;-80
2023/11/20 05:49:59;;;;;;;2.77;0.80;;;;;;;8.95;100.00;98945.19;5098747;28;20216;-78
2023/11/20 05:52:29;;;;;;;3.47;1.00;;;;;;;9.16;100.00;98940.16;5094637;28;20276;-78
2023/11/20 05:54:58;;;;;;;3.37;1.00;;;;;;;9.06;100.00;98939.91;5093211;28;20205;-78
2023/11/20 05:57:29;;;;;;;3.33;1.10;;;;;;;9.01;100.00;98946.94;5084765;28;20307;-78
2023/11/20 06:00:00;;;;;;;2.67;1.00;;;;;;;8.97;100.00;98946.59;5105794;28;20214;-78
2023/11/20 06:02:37;;;;;;;2.93;0.80;;;;;;;9.01;100.00;98966.47;5096143;28;20195;-77
2023/11/20 06:05:10;;;;;;;3.40;1.00;;;;;;;8.99;100.00;98965.91;5102985;28;20184;-78
2023/11/20 06:07:38;;;;;;;5.27;0.80;;;;;;;9.31;100.00;98965.66;5092030;28;20244;-77
2023/11/20 06:10:06;;;;;;;2.37;0.73;;;;;;;9.46;100.00;98976.78;5094617;28;20220;-79
2023/11/20 06:12:41;;;;;;;2.53;0.67;;;;;;;9.46;100.00;98982.13;5096032;28;20225;-78
2023/11/20 06:15:11;;;;;;;2.47;0.90;;;;;;;9.49;100.00;98998.50;5094557;28;20224;-78
2023/11/20 06:17:48;;;;;;;4.37;1.00;;;;;;;9.55;100.00;98992.25;5095246;28;20264;-78
2023/11/20 06:20:17;;;;;;;4.13;1.07;;;;;;;9.59;100.00;98980.06;5098944;28;20238;-76
2023/11/20 06:22:45;;;;;;;2.20;1.03;;;;;;;9.84;100.00;98981.75;5094718;28;20660;-78
2023/11/20 06:25:13;;;;;;;5.50;1.27;;;;;;;9.92;100.00;98994.78;5088851;28;20197;-77
2023/11/20 06:27:41;;;;;;;4.50;0.93;;;;;;;9.99;100.00;98988.25;5111506;28;20206;-80
2023/11/20 06:30:11;;;;;;;3.83;1.37;;;;;;;10.01;100.00;98983.50;5114082;28;20219;-79
2023/11/20 06:32:39;;;;;;;2.43;0.93;;;;;;;10.23;100.00;98981.09;5093647;28;20200;-80
2023/11/20 06:35:13;;;;;;;3.47;1.10;;;;;;;10.32;100.00;98989.59;5110826;28;20195;-78
2023/11/20 06:37:44;;;;;;;5.03;1.17;;;;;;;10.31;100.00;98986.09;5100868;28;20202;-80
2023/11/20 06:40:12;;;;;;;5.77;1.10;;;;;;;10.34;100.00;98998.22;5095491;28;20206;-78
2023/11/20 06:42:44;;;;;;;3.97;1.00;;;;;;;10.50;100.00;99002.84;5102656;28;20275;-78
2023/11/20 06:45:12;;;;;;;1.83;0.80;;;;;;;10.69;100.00;98998.19;5098899;28;20204;-80
2023/11/20 06:47:44;;;;;;;2.93;1.00;;;;;;;10.72;100.00;99009.25;5109951;28;20274;-79
2023/11/20 06:50:15;;;;;;;6.07;1.30;;;;;;;10.85;100.00;99006.31;5104044;28;20704;-78
2023/11/20 06:52:45;;;;;;;3.43;1.03;;;;;;;10.85;100.00;99005.50;5106638;28;20196;-81
2023/11/20 06:55:13;;;;;;;3.60;0.87;;;;;;;10.96;100.00;99002.78;5107194;28;20196;-78
2023/11/20 06:57:44;;;;;;;3.57;1.00;;;;;;;11.02;100.00;99007.19;5096387;28;20714;-78
2023/11/20 07:00:12;;;;;;;3.07;0.83;;;;;;;11.03;100.00;99002.66;5100661;28;20199;-78
2023/11/20 07:02:42;;;;;;;2.97;0.93;;;;;;;11.05;100.00;99016.66;5099143;28;20192;-78
2023/11/20 07:05:16;;;;;;;5.77;1.00;;;;;;;11.18;100.00;99005.66;5097739;28;20204;-79
2023/11/20 07:07:52;;;;;;;4.53;1.10;;;;;;;11.22;100.00;99001.44;5102881;28;20672;-79
2023/11/20 07:10:25;;;;;;;2.77;1.00;;;;;;;11.26;100.00;99007.13;5093784;28;20211;-79
2023/11/20 07:12:53;;;;;;;3.40;0.77;;;;;;;11.38;100.00;99003.34;5105784;28;20199;-79
2023/11/20 07:15:25;;;;;;;2.30;1.00;;;;;;;11.41;100.00;99002.88;5104268;28;20198;-79
2023/11/20 07:17:52;;;;;;;4.23;1.30;;;;;;;11.44;100.00;98998.88;5093809;28;20282;-79
2023/11/20 07:20:20;;;;;;;2.73;0.87;;;;;;;11.43;100.00;99006.13;5105272;28;20187;-78
2023/11/20 07:22:47;;;;;;;3.03;1.10;;;;;;;11.45;100.00;99012.06;5104183;28;20219;-82
2023/11/20 07:25:14;;;;;;;3.73;1.10;;;;;;;11.53;100.00;99012.72;5100264;28;20636;-80
2023/11/20 07:27:41;;;;;;;4.17;1.20;;;;;;;11.58;100.00;99002.91;5109074;28;20712;-80
2023/11/20 07:30:09;;;;;;;4.53;1.00;;;;;;;11.58;100.00;99004.75;5083531;28;20215;-78
2023/11/20 07:32:36;;;;;;;3.37;1.00;;;;;;;11.62;100.00;99000.56;5095843;28;20199;-80
2023/11/20 07:35:04;;;;;;;3.90;0.97;;;;;;;11.63;100.00;99005.69;5091114;28;20232;-78
2023/11/20 07:37:32;;;;;;;3.23;0.83;;;;;;;11.65;100.00;99008.94;5089943;28;20214;-79
2023/11/20 07:40:07;;;;;;;3.90;1.00;;;;;;;11.71;100.00;99007.97;5073281;28;20227;-79
2023/11/20 07:42:35;;;;;;;4.77;1.10;;;;;;;11.74;100.00;98998.66;5093979;28;20207;-80
2023/11/20 07:45:03;;;;;;;4.73;1.20;;;;;;;11.81;100.00;99005.50;5094096;28;20200;-80
2023/11/20 07:47:30;;;;;;;4.87;1.20;;;;;;;11.88;100.00;99011.53;5094881;28;20232;-78
2023/11/20 07:49:57;;;;;;;2.73;1.00;;;;;;;11.94;100.00;99008.94;5092420;28;20244;-80
2023/11/20 07:52:24;;;;;;;4.10;1.60;;;;;;;11.99;100.00;99020.53;5102346;28;20275;-79
2023/11/20 07:54:52;;;;;;;4.20;0.90;;;;;;;12.06;100.00;99023.09;5102205;28;20200;-80
2023/11/20 07:57:21;;;;;;;3.07;1.00;;;;;;;12.06;100.00;99006.97;5078956;28;20218;-79
2023/11/20 07:59:50;;;;;;;3.83;0.97;;;;;;;12.10;100.00;99013.47;5102667;28;20300;-79
2023/11/20 08:02:18;;;;;;;4.53;1.20;;;;;;;12.14;100.00;99017.28;5102136;28;20291;-78
2023/11/20 08:04:46;;;;;;;4.43;1.40;;;;;;;12.19;100.00;99010.13;5102645;28;20196;-78
2023/11/20 08:07:14;;;;;;;3.73;1.30;;;;;;;12.23;100.00;99018.50;5100686;28;20202;-79
2023/11/20 08:09:42;;;;;;;4.83;1.10;;;;;;;12.26;100.00;99010.00;5100636;28;20273;-78
2023/11/20 08:12:09;;;;;;;3.77;1.20;;;;;;;12.29;100.00;99018.34;5102741;28;20204;-78
2023/11/20 08:14:36;;;;;;;4.23;1.10;;;;;;;12.44;100.00;99016.97;5098560;28;20189;-80
2023/11/20 08:17:03;;;;;;;3.50;1.20;;;;;;;12.37;100.00;99022.50;5090569;28;20685;-79
2023/11/20 08:19:31;;;;;;;5.40;1.20;;;;;;;12.51;100.00;99026.47;5086420;28;20226;-79
2023/11/20 08:21:58;;;;;;;4.60;1.23;;;;;;;12.62;100.00;99006.75;5073435;28;20198;-78
2023/11/20 08:24:25;;;;;;;4.00;1.13;;;;;;;12.75;100.00;99010.94;5081984;28;20186;-78
2023/11/20 08:26:52;;;;;;;7.20;1.30;;;;;;;12.92;100.00;99008.22;5091789;28;20206;-79
2023/11/20 08:29:19;;;;;;;5.50;1.53;;;;;;;13.17;100.00;99009.38;5097088;28;20197;-78
2023/11/20 08:31:47;;;;;;;5.63;1.40;;;;;;;13.47;100.00;99006.22;5106522;28;20849;-82
2023/11/20 08:34:15;;;;;;;5.13;1.70;;;;;;;13.68;100.00;98999.16;5106252;28;20684;-78
2023/11/20 08:36:46;;;;;;;5.90;1.57;;;;;;;14.13;100.00;99001.44;5108788;28;20277;-78
2023/11/20 08:39:14;;;;;;;5.27;1.30;;;;;;;14.41;100.00;98997.63;5112155;28;20191;-78
2023/11/20 08:41:42;;;;;;;4.27;1.33;;;;;;;14.60;100.00;98996.16;5092972;28;20209;-82
2023/11/20 08:44:09;;;;;;;4.43;1.10;;;;;;;14.88;100.00;98994.94;5091534;28;20215;-79
2023/11/20 08:46:36;;;;;;;4.37;0.90;;;;;;;14.76;100.00;98980.84;5096048;28;20277;-78
2023/11/20 08:49:06;;;;;;;3.87;1.20;;;;;;;15.23;100.00;98989.69;5091860;28;20255;-78
2023/11/20 08:51:34;;;;;;;4.33;1.10;;;;;;;15.38;100.00;98991.63;5093631;28;20265;-79
2023/11/20 08:54:02;;;;;;;3.07;0.97;;;;;;;15.49;100.00;99000.56;5101262;28;20704;-78
2023/11/20 08:56:29;;;;;;;3.63;1.50;;;;;;;15.19;100.00;98996.69;5094817;28;20194;-80
2023/11/20 08:58:55;;;;;;;4.57;1.20;;;;;;;15.07;100.00;98998.78;5095101;28;20246;-80
2023/11/20 09:01:35;;;;;;;5.03;1.17;;;;;;;15.13;100.00;99003.13;5089287;28;20208;-78
2023/11/20 09:04:03;;;;;;;2.93;1.00;;;;;;;15.11;100.00;98991.00;5091905;28;20193;-78
2023/11/20 09:06:32;;;;;;;2.70;0.80;;;;;;;15.25;100.00;98992.13;5101143;28;20194;-79
2023/11/20 09:08:58;;;;;;;3.00;1.17;;;;;;;15.75;100.00;99000.34;5098261;28;20271;-80
2023/11/20 09:11:27;;;;;;;4.47;1.53;;;;;;;15.81;100.00;98988.50;5099941;28;20224;-78
2023/11/20 09:13:53;;;;;;;2.90;0.90;;;;;;;15.89;100.00;98995.22;5096901;28;20192;-78
2023/11/20 09:16:20;;;;;;;4.10;0.90;;;;;;;15.98;100.00;98988.22;5099320;28;20683;-78
2023/11/20 09:18:48;;;;;;;5.53;1.00;;;;;;;15.68;100.00;98989.00;5103361;28;20202;-78
2023/11/20 09:21:15;;;;;;;3.57;1.10;;;;;;;15.59;100.00;98993.28;5096874;28;20718;-78
2023/11/20 09:23:44;;;;;;;2.20;0.97;;;;;;;15.50;100.00;99005.66;5077880;28;20200;-78
2023/11/20 09:26:11;;;;;;;2.30;1.00;;;;;;;15.27;100.00;98998.84;5095143;28;20199;-78
2023/11/20 09:28:42;;;;;;;3.10;0.87;;;;;;;15.14;100.00;99012.03;5095611;28;20188;-79
2023/11/20 09:31:18;;;;;;;1.40;0.60;;;;;;;15.08;100.00;98999.59;5103452;28;20242;-79
2023/11/20 09:33:47;;;;;;;1.43;0.60;;;;;;;15.07;100.00;99004.16;5109994;28;20207;-79
2023/11/20 09:36:14;;;;;;;2.53;0.90;;;;;;;15.11;100.00;98993.69;5085040;28;20213;-82
2023/11/20 09:38:41;;;;;;;1.67;0.60;;;;;;;15.30;100.00;98974.03;5086436;28;20211;-80
2023/11/20 09:41:10;;;;;;;2.97;0.60;;;;;;;15.41;100.00;98974.88;5100655;28;20572;-78
2023/11/20 09:43:37;;;;;;;1.10;0.50;;;;;;;15.39;100.00;98966.25;5105559;28;20199;-79
2023/11/20 09:46:08;;;;;;;2.17;0.53;;;;;;;15.35;100.00;98965.16;5107391;27;20735;-80
2023/11/20 09:48:38;;;;;;;1.90;0.77;;;;;;;15.15;100.00;98965.09;5108165;28;20194;-81
2023/11/20 09:51:09;;;;;;;2.00;0.70;;;;;;;14.83;100.00;98962.56;5107495;28;20246;-79
2023/11/20 09:53:41;;;;;;;1.97;0.87;;;;;;;14.86;100.00;98962.81;5086055;28;20663;-79
2023/11/20 09:56:10;;;;;;;1.00;0.70;;;;;;;15.34;100.00;98960.84;5093797;28;20686;-80
2023/11/20 09:58:40;;;;;;;1.70;0.80;;;;;;;15.49;100.00;98949.25;5093639;28;20290;-80
2023/11/20 10:01:10;;;;;;;2.20;0.70;;;;;;;15.58;100.00;98939.59;5092887;28;20272;-79
2023/11/20 10:03:39;;;;;;;3.53;0.60;;;;;;;15.58;100.00;98947.69;5094359;28;20653;-79
2023/11/20 10:06:07;;;;;;;2.13;0.87;;;;;;;15.68;100.00;98950.38;5089098;28;20219;-79
2023/11/20 10:08:36;;;;;;;2.50;0.80;;;;;;;15.77;100.00;98936.06;5075121;28;20239;-78
2023/11/20 10:11:04;;;;;;;1.53;0.70;;;;;;;15.80;100.00;98937.44;5091227;28;20220;-78
2023/11/20 10:13:33;;;;;;;2.30;0.90;;;;;;;15.91;100.00;98933.63;5089745;28;20204;-78
2023/11/20 10:16:00;;;;;;;2.50;0.60;;;;;;;15.77;100.00;98932.59;5085704;28;20192;-78
2023/11/20 10:18:27;;;;;;;1.53;0.77;;;;;;;15.69;100.00;98931.22;5086694;28;20216;-78
2023/11/20 10:20:57;;;;;;;1.30;0.80;;;;;;;15.31;100.00;98920.88;5096281;28;20205;-78
2023/11/20 10:23:25;;;;;;;2.50;0.80;;;;;;;15.15;100.00;98928.13;5111254;28;20191;-79
2023/11/20 10:25:52;;;;;;;1.60;0.80;;;;;;;15.17;100.00;98920.56;5106247;28;20204;-79
2023/11/20 10:28:21;;;;;;;1.87;1.00;;;;;;;15.16;100.00;98915.47;5071272;28;20212;-78
2023/11/20 10:30:49;;;;;;;3.27;0.80;;;;;;;14.90;100.00;98912.69;5099785;28;20220;-79
2023/11/20 10:33:20;;;;;;;1.73;0.80;;;;;;;15.07;100.00;98914.38;5106239;28;20192;-79
2023/11/20 10:35:48;;;;;;;2.67;0.87;;;;;;;15.15;100.00;98914.66;5096305;28;20192;-79
2023/11/20 10:38:15;;;;;;;4.03;0.80;;;;;;;15.31;100.00;98905.50;5098166;28;20196;-79
2023/11/20 10:40:44;;;;;;;3.53;0.80;;;;;;;15.53;100.00;98909.88;5092699;28;20196;-79
2023/11/20 10:43:11;;;;;;;2.00;0.90;;;;;;;15.47;100.00;98906.34;5102770;28;20184;-79
2023/11/20 10:45:38;;;;;;;2.30;0.90;;;;;;;15.60;100.00;98896.91;5100170;28;20315;-79
2023/11/20 10:48:09;;;;;;;4.73;0.90;;;;;;;15.46;100.00;98912.81;5102040;28;20668;-80
2023/11/20 10:50:37;;;;;;;2.43;0.70;;;;;;;15.51;100.00;98899.34;5098456;28;20727;-80
2023/11/20 10:53:08;;;;;;;3.43;0.80;;;;;;;15.43;100.00;98889.06;5093729;28;20203;-79
2023/11/20 10:55:42;;;;;;;3.40;0.90;;;;;;;15.47;100.00;98895.53;5096190;28;20199;-79
2023/11/20 10:58:11;;;;;;;2.10;0.80;;;;;;;15.36;100.00;98875.81;5076001;28;20594;-79
2023/11/20 11:00:40;;;;;;;1.70;0.70;;;;;;;15.26;100.00;98880.38;5102835;28;20196;-79
2023/11/20 11:03:14;;;;;;;3.20;0.90;;;;;;;15.31;100.00;98878.50;5092185;28;20200;-80
2023/11/20 11:05:45;;;;;;;2.80;1.10;;;;;;;15.56;100.00;98875.03;5086928;28;20219;-78
2023/11/20 11:08:14;;;;;;;2.13;0.90;;;;;;;15.61;100.00;98871.53;5092091;28;20267;-79
2023/11/20 11:10:42;;;;;;;2.00;0.97;;;;;;;15.60;100.00;98886.91;5086867;28;20265;-80
2023/11/20 11:13:11;;;;;;;2.87;0.90;;;;;;;15.81;100.00;98871.53;5090958;28;20196;-81
2023/11/20 11:15:39;;;;;;;2.40;0.80;;;;;;;15.67;100.00;98873.97;5085292;28;20189;-79
2023/11/20 11:18:12;;;;;;;2.63;0.90;;;;;;;15.61;100.00;98866.94;5088281;28;20189;-79
2023/11/20 11:20:46;;;;;;;2.87;1.00;;;;;;;15.62;100.00;98852.38;5100749;28;20184;-78
2023/11/20 11:23:16;;;;;;;2.30;0.70;;;;;;;15.60;100.00;98873.44;5090198;28;20192;-78
2023/11/20 11:25:52;;;;;;;3.47;0.90;;;;;;;15.73;100.00;98866.66;5084431;28;20185;-78
2023/11/20 11:28:20;;;;;;;3.93;0.90;;;;;;;15.78;100.00;98861.25;5091353;28;20207;-79
2023/11/20 11:30:48;;;;;;;2.80;1.20;;;;;;;15.66;100.00;98868.84;5091075;28;20201;-79
2023/11/20 11:33:27;;;;;;;2.77;1.00;;;;;;;15.57;100.00;98855.06;5101060;28;20188;-78
2023/11/20 11:36:13;;;;;;;2.20;0.77;;;;;;;15.62;100.00;98854.25;5088888;28;20209;-80
2023/11/20 11:39:18;;;;;;;3.40;0.90;;;;;;;15.55;100.00;98856.41;5097645;28;20215;-79
2023/11/20 11:41:53;;;;;;;2.50;1.13;;;;;;;15.73;100.00;98866.66;5101286;28;20252;-79
2023/11/20 11:44:26;;;;;;;2.63;0.97;;;;;;;15.70;100.00;98854.53;5099776;28;20202;-78